Time;durP1;ratioP1;P1;durP2;ratioP2;P2;SDS_P1;SDS_P2;PMS_P1;PMS_P2;Temp;Humidity;BMP_temperature;BMP_pressure;BME280_temperature;BME280_humidity;BME280_pressure;Samples;Min_cycle;Max_cycle;Signal;HPM_P1;HPM_P2
2022/05/26 00:01:05;;;;;;;5.22;1.38;;;;;;;14.20;100.00;100795.41;5035187;28;20045;-72
2022/05/26 00:03:36;;;;;;;2.78;1.48;;;;;;;14.21;100.00;100802.41;5035309;28;20032;-72
2022/05/26 00:06:02;;;;;;;3.28;1.33;;;;;;;14.20;100.00;100792.78;5039320;28;20056;-73
2022/05/26 00:08:28;;;;;;;3.75;1.52;;;;;;;14.18;100.00;100789.38;5036198;28;20028;-71
2022/05/26 00:10:55;;;;;;;2.72;1.23;;;;;;;14.18;100.00;100792.03;5034002;28;20090;-71
2022/05/26 00:13:20;;;;;;;3.28;1.45;;;;;;;14.02;100.00;100764.81;5036514;28;20891;-72
2022/05/26 00:15:45;;;;;;;4.38;1.60;;;;;;;14.17;100.00;100789.47;5034934;28;20032;-71
2022/05/26 00:18:11;;;;;;;3.25;1.55;;;;;;;14.01;100.00;100773.66;5035619;28;20048;-72
2022/05/26 00:20:36;;;;;;;2.60;1.17;;;;;;;14.14;100.00;100792.28;5036831;28;20032;-72
2022/05/26 00:23:02;;;;;;;4.30;1.23;;;;;;;14.12;100.00;100787.09;5035668;28;20984;-72
2022/05/26 00:25:28;;;;;;;3.00;1.65;;;;;;;14.11;100.00;100790.69;5036023;28;20033;-71
2022/05/26 00:27:54;;;;;;;3.38;1.83;;;;;;;14.01;100.00;100768.38;5037345;28;20145;-74
2022/05/26 00:30:19;;;;;;;4.35;1.95;;;;;;;14.10;100.00;100793.41;5034955;28;20562;-72
2022/05/26 00:32:44;;;;;;;3.45;1.92;;;;;;;14.01;100.00;100783.38;5037115;28;20055;-71
2022/05/26 00:35:10;;;;;;;5.55;1.88;;;;;;;14.04;100.00;100786.69;5044624;28;20071;-73
2022/05/26 00:37:35;;;;;;;3.45;1.73;;;;;;;14.00;100.00;100769.31;5022165;28;20028;-74
2022/05/26 00:40:02;;;;;;;3.28;2.10;;;;;;;14.09;100.00;100792.53;5031931;28;20087;-73
2022/05/26 00:42:29;;;;;;;4.90;2.50;;;;;;;13.99;100.00;100778.16;5032365;28;20134;-71
2022/05/26 00:44:54;;;;;;;3.22;2.00;;;;;;;13.99;100.00;100779.97;5032770;28;20041;-72
2022/05/26 00:47:28;;;;;;;4.45;2.55;;;;;;;14.04;100.00;100797.25;5033930;28;20861;-71
2022/05/26 00:49:57;;;;;;;3.08;1.90;;;;;;;14.04;100.00;100793.75;5035104;28;20036;-72
2022/05/26 00:52:42;;;;;;;3.17;2.13;;;;;;;14.01;100.00;100794.81;5036324;28;20031;-71
2022/05/26 00:55:13;;;;;;;3.80;2.00;;;;;;;13.88;100.00;100769.19;5033751;28;20028;-76
2022/05/26 00:58:05;;;;;;;5.78;2.25;;;;;;;14.04;100.00;100796.41;5034861;28;20059;-73
2022/05/26 01:00:35;;;;;;;3.70;1.75;;;;;;;13.98;100.00;100792.34;5032352;28;20036;-73
2022/05/26 01:03:08;;;;;;;3.15;1.83;;;;;;;13.68;100.00;100741.28;5030671;28;20084;-72
2022/05/26 01:05:41;;;;;;;3.55;1.73;;;;;;;13.66;100.00;100740.50;5033531;28;20051;-73
2022/05/26 01:08:16;;;;;;;3.13;1.58;;;;;;;13.92;100.00;100795.34;5032891;28;20028;-73
2022/05/26 01:10:41;;;;;;;3.17;1.58;;;;;;;13.96;100.00;100801.31;5033843;28;20036;-71
2022/05/26 01:13:06;;;;;;;3.35;1.75;;;;;;;13.90;100.00;100798.97;5037854;28;20854;-75
2022/05/26 01:15:35;;;;;;;5.03;2.05;;;;;;;13.87;100.00;100792.09;5036742;28;20147;-72
2022/05/26 01:18:10;;;;;;;2.90;1.58;;;;;;;13.92;100.00;100800.63;5040189;28;20255;-73
2022/05/26 01:20:46;;;;;;;;;;;;;;;13.91;100.00;100803.34;5041056;28;20036;-72
2022/05/26 01:23:42;;;;;;;3.25;1.75;;;;;;;13.87;100.00;100807.94;5038347;28;19917;-71
2022/05/26 01:26:19;;;;;;;3.33;1.67;;;;;;;13.88;100.00;100807.00;5037047;28;20871;-71
2022/05/26 01:29:22;;;;;;;2.80;1.33;;;;;;;13.74;100.00;100791.09;5050981;28;20032;-70
2022/05/26 01:31:50;;;;;;;6.05;2.03;;;;;;;13.84;100.00;100808.13;5033473;28;20139;-72
2022/05/26 01:34:31;;;;;;;3.13;1.45;;;;;;;13.83;100.00;100807.28;5034317;28;20028;-71
2022/05/26 01:37:39;;;;;;;4.13;1.80;;;;;;;13.81;100.00;100797.75;5063987;28;20035;-71
2022/05/26 01:40:32;;;;;;;2.85;1.73;;;;;;;13.64;100.00;100774.06;5056456;28;20044;-70
2022/05/26 01:43:22;;;;;;;3.08;1.67;;;;;;;13.61;100.00;100780.38;5058404;28;20868;-70
2022/05/26 01:45:51;;;;;;;3.78;2.03;;;;;;;13.78;100.00;100811.97;5054512;28;20040;-71
2022/05/26 01:48:31;;;;;;;4.15;2.53;;;;;;;13.76;100.00;100810.34;5056579;28;20082;-70
2022/05/26 01:51:17;;;;;;;3.78;1.77;;;;;;;13.64;100.00;100789.91;5057566;28;20043;-72
2022/05/26 01:53:57;;;;;;;4.88;2.70;;;;;;;13.66;100.00;100798.59;5062178;28;20767;-73
2022/05/26 01:56:58;;;;;;;4.18;2.40;;;;;;;13.74;100.00;100817.50;5057427;28;20033;-73
2022/05/26 01:59:30;;;;;;;3.75;1.80;;;;;;;13.42;100.00;100763.84;5019269;28;20041;-74
2022/05/26 02:02:03;;;;;;;3.72;2.47;;;;;;;13.62;100.00;100797.09;5055932;28;20031;-75
2022/05/26 02:04:37;;;;;;;3.45;2.08;;;;;;;13.71;100.00;100823.81;5057594;28;20059;-76
2022/05/26 02:07:12;;;;;;;;;;;;;;;13.71;100.00;100828.25;5064033;28;20040;-75
2022/05/26 02:09:41;;;;;;;9.15;2.35;;;;;;;13.60;100.00;100817.44;5065457;28;19916;-75
2022/05/26 02:12:35;;;;;;;5.70;2.58;;;;;;;13.69;100.00;100830.09;5057820;28;20040;-81
2022/05/26 02:15:05;;;;;;;6.70;3.03;;;;;;;13.67;100.00;100838.13;5059076;28;20079;-72
2022/05/26 02:17:42;;;;;;;4.07;2.33;;;;;;;13.55;100.00;100817.66;5061069;28;20031;-74
2022/05/26 02:20:13;;;;;;;6.72;2.97;;;;;;;13.66;100.00;100835.56;5057482;28;20098;-75
2022/05/26 02:22:49;;;;;;;9.27;3.40;;;;;;;13.66;100.00;100836.41;5057924;28;20040;-77
2022/05/26 02:25:18;;;;;;;11.75;3.33;;;;;;;13.65;100.00;100842.63;5057042;28;20043;-71
2022/05/26 02:27:44;;;;;;;15.75;3.15;;;;;;;13.65;100.00;100839.16;5055310;28;20074;-73
2022/05/26 02:30:12;;;;;;;7.88;3.50;;;;;;;13.60;100.00;100833.28;5055950;28;20036;-72
2022/05/26 02:32:45;;;;;;;7.15;3.15;;;;;;;13.52;100.00;100827.59;5055423;28;20225;-73
2022/05/26 02:35:30;;;;;;;7.67;3.00;;;;;;;13.60;100.00;100838.56;5037937;28;20042;-72
2022/05/26 02:37:59;;;;;;;;;;;;;;;13.58;100.00;100843.94;5051122;28;20290;-72
2022/05/26 02:40:25;;;;;;;7.22;3.25;;;;;;;13.44;100.00;100829.78;5036857;28;19912;-71
2022/05/26 02:42:57;;;;;;;11.18;3.60;;;;;;;13.55;100.00;100848.53;5062544;28;20098;-72
2022/05/26 02:45:33;;;;;;;8.65;3.95;;;;;;;13.47;100.00;100824.31;5073438;28;20063;-72
2022/05/26 02:48:19;;;;;;;8.80;4.25;;;;;;;13.47;100.00;100837.53;5088966;28;20039;-72
2022/05/26 02:50:50;;;;;;;8.80;3.90;;;;;;;13.54;100.00;100846.81;5047366;28;20036;-71
2022/05/26 02:53:25;;;;;;;7.45;4.00;;;;;;;13.54;100.00;100860.03;5053331;28;20036;-72
2022/05/26 02:56:05;;;;;;;9.48;3.35;;;;;;;13.53;100.00;100861.81;5056110;28;20130;-75
2022/05/26 02:58:46;;;;;;;8.90;3.90;;;;;;;13.44;100.00;100841.19;5055485;28;20028;-73
2022/05/26 03:01:26;;;;;;;7.95;3.75;;;;;;;13.48;100.00;100848.03;5056818;28;20879;-74
2022/05/26 03:03:58;;;;;;;7.03;3.33;;;;;;;13.49;100.00;100860.25;5056342;28;20036;-72
2022/05/26 03:06:33;;;;;;;9.25;3.80;;;;;;;13.42;100.00;100847.50;5055276;28;20032;-73
2022/05/26 03:09:00;;;;;;;10.38;3.60;;;;;;;13.49;100.00;100865.53;5056542;28;20929;-71
2022/05/26 03:11:29;;;;;;;10.77;3.30;;;;;;;13.39;100.00;100839.72;5057747;28;20256;-73
2022/05/26 03:13:54;;;;;;;6.38;3.53;;;;;;;13.35;100.00;100840.84;5057276;28;20135;-74
2022/05/26 03:16:20;;;;;;;11.95;4.43;;;;;;;13.39;100.00;100853.78;5057766;28;20028;-72
2022/05/26 03:18:46;;;;;;;9.20;4.43;;;;;;;13.42;100.00;100860.69;5055502;28;20039;-72
2022/05/26 03:21:12;;;;;;;9.73;3.97;;;;;;;13.37;100.00;100852.16;5039028;28;20024;-74
2022/05/26 03:23:39;;;;;;;18.85;3.85;;;;;;;13.34;100.00;100854.97;5053366;28;20826;-75
2022/05/26 03:26:05;;;;;;;8.73;3.22;;;;;;;13.45;100.00;100871.91;5054491;28;20768;-73
2022/05/26 03:28:31;;;;;;;7.00;3.80;;;;;;;13.33;100.00;100854.13;5053125;28;20024;-73
2022/05/26 03:30:57;;;;;;;7.88;2.88;;;;;;;13.33;100.00;100856.75;5056141;28;20075;-73
2022/05/26 03:33:23;;;;;;;8.82;4.15;;;;;;;13.43;100.00;100881.72;5054897;28;20032;-73
2022/05/26 03:41:21;;;;;;;5.57;3.13;;;;;;;13.25;100.00;100854.53;5053976;28;20827;-74
2022/05/26 03:43:51;;;;;;;9.10;3.33;;;;;;;13.30;100.00;100859.56;5053465;28;20335;-75
2022/05/26 03:46:16;;;;;;;7.30;3.92;;;;;;;13.43;100.00;100880.88;5037216;28;20032;-74
2022/05/26 03:48:42;;;;;;;9.55;3.65;;;;;;;13.17;100.00;100842.69;5052197;28;20063;-73
2022/05/26 03:51:08;;;;;;;10.20;4.82;;;;;;;13.21;100.00;100855.63;5048763;28;20066;-71
2022/05/26 03:53:34;;;;;;;8.60;4.18;;;;;;;13.43;100.00;100896.72;5051007;28;20529;-73
2022/05/26 03:56:00;;;;;;;12.32;5.15;;;;;;;13.41;100.00;100882.75;5050455;28;20036;-73
2022/05/26 03:58:26;;;;;;;8.90;4.63;;;;;;;13.36;100.00;100882.13;5048409;28;20105;-76
2022/05/26 04:00:51;;;;;;;7.95;4.32;;;;;;;13.43;100.00;100896.72;5033065;28;20868;-73
2022/05/26 04:03:17;;;;;;;7.68;4.20;;;;;;;13.37;100.00;100886.47;5051415;28;20074;-72
2022/05/26 04:05:42;;;;;;;11.38;3.95;;;;;;;13.35;100.00;100893.66;5048755;28;20028;-73
2022/05/26 04:08:08;;;;;;;6.88;4.18;;;;;;;13.40;100.00;100897.72;5048804;28;20842;-74
2022/05/26 04:10:33;;;;;;;11.02;5.30;;;;;;;13.34;100.00;100897.22;5049065;28;20056;-75
2022/05/26 04:12:59;;;;;;;11.48;4.80;;;;;;;13.42;100.00;100910.84;5048911;28;20024;-74
2022/05/26 04:15:24;;;;;;;7.38;4.20;;;;;;;13.35;100.00;100898.91;5051376;28;20749;-74
2022/05/26 04:17:52;;;;;;;13.05;4.45;;;;;;;13.28;100.00;100888.66;5049369;28;20040;-74
2022/05/26 04:20:21;;;;;;;14.02;5.03;;;;;;;13.39;100.00;100911.84;5019246;28;20034;-73
2022/05/26 04:22:46;;;;;;;8.23;4.40;;;;;;;13.47;100.00;100925.50;5047555;28;20035;-75
2022/05/26 04:25:12;;;;;;;8.43;4.53;;;;;;;13.55;100.00;100923.28;5033262;28;20032;-74
2022/05/26 04:27:38;;;;;;;12.70;4.47;;;;;;;13.61;100.00;100932.69;5031721;28;20032;-75
2022/05/26 04:30:05;;;;;;;9.10;5.15;;;;;;;13.56;100.00;100918.88;5048877;28;20125;-73
2022/05/26 04:32:31;;;;;;;11.63;5.45;;;;;;;13.66;100.00;100935.91;5051133;28;20031;-76
2022/05/26 04:34:57;;;;;;;10.35;4.68;;;;;;;13.69;100.00;100935.75;5048621;28;20060;-71
2022/05/26 04:37:25;;;;;;;9.00;4.88;;;;;;;13.69;100.00;100933.09;5050212;28;20040;-76
2022/05/26 04:39:51;;;;;;;11.15;4.78;;;;;;;13.67;100.00;100917.34;5048982;28;20028;-74
2022/05/26 04:42:17;;;;;;;10.38;5.10;;;;;;;13.74;100.00;100920.50;5049166;28;20024;-74
2022/05/26 04:44:43;;;;;;;21.17;5.35;;;;;;;13.86;100.00;100938.31;5050621;28;20127;-74
2022/05/26 04:47:09;;;;;;;10.77;5.25;;;;;;;13.50;100.00;100876.97;5056852;28;20135;-72
2022/05/26 04:49:38;;;;;;;15.25;5.85;;;;;;;13.72;100.00;100917.13;5057592;28;20020;-72
2022/05/26 04:52:12;;;;;;;12.13;5.07;;;;;;;13.33;100.00;100846.19;5056040;28;20039;-72
2022/05/26 04:54:38;;;;;;;19.23;5.72;;;;;;;13.85;100.00;100941.94;5035082;28;20097;-74
2022/05/26 04:57:06;;;;;;;12.15;5.28;;;;;;;13.88;100.00;100954.97;5035000;28;20131;-76
2022/05/26 04:59:32;;;;;;;8.80;5.13;;;;;;;13.87;100.00;100950.59;5035265;28;20101;-72
2022/05/26 05:01:58;;;;;;;9.75;5.07;;;;;;;13.75;100.00;100933.63;5036009;28;20032;-75
2022/05/26 05:04:25;;;;;;;12.93;5.43;;;;;;;13.80;100.00;100946.59;5036661;28;20087;-76
2022/05/26 05:06:51;;;;;;;13.65;5.18;;;;;;;13.76;100.00;100942.41;5038118;28;20044;-72
2022/05/26 05:09:16;;;;;;;10.88;5.03;;;;;;;13.84;100.00;100961.34;5036689;28;20830;-75
2022/05/26 05:11:42;;;;;;;9.00;5.18;;;;;;;13.88;100.00;100968.16;5036945;28;20040;-77
2022/05/26 05:14:07;;;;;;;14.43;5.28;;;;;;;13.85;100.00;100962.19;5017803;28;20031;-72
2022/05/26 05:16:37;;;;;;;13.80;5.78;;;;;;;13.42;100.00;100895.03;5036109;28;20865;-72
2022/05/26 05:19:02;;;;;;;11.93;5.88;;;;;;;13.84;100.00;100958.69;5034621;28;20040;-76
2022/05/26 05:21:49;;;;;;;13.60;5.63;;;;;;;13.87;100.00;100966.47;5051512;28;20097;-75
2022/05/26 05:24:23;;;;;;;8.98;5.22;;;;;;;13.84;100.00;100966.63;5049519;28;20079;-76
2022/05/26 05:26:50;;;;;;;17.17;6.97;;;;;;;13.82;100.00;100963.22;5055762;28;20028;-73
2022/05/26 05:29:18;;;;;;;21.15;6.55;;;;;;;13.47;100.00;100914.09;5055155;28;20132;-76
2022/05/26 05:31:49;;;;;;;12.63;6.45;;;;;;;13.88;100.00;100978.72;5055904;28;20028;-76
2022/05/26 05:34:18;;;;;;;9.45;5.38;;;;;;;13.90;100.00;100982.13;5037630;28;20776;-76
2022/05/26 05:36:44;;;;;;;17.80;6.43;;;;;;;13.72;100.00;100954.09;5037995;28;20572;-74
2022/05/26 05:39:10;;;;;;;14.93;5.60;;;;;;;13.89;100.00;100977.78;5054741;28;20132;-77
2022/05/26 05:41:36;;;;;;;12.80;5.53;;;;;;;13.90;100.00;100976.84;5055696;28;20873;-76
2022/05/26 05:44:02;;;;;;;16.95;6.25;;;;;;;13.98;100.00;100987.88;5054862;28;20826;-77
2022/05/26 05:46:34;;;;;;;12.35;5.95;;;;;;;14.05;100.00;100986.59;5055839;28;20036;-77
2022/05/26 05:49:02;;;;;;;20.75;6.97;;;;;;;14.07;100.00;100978.56;5056463;28;20047;-75
2022/05/26 05:51:28;;;;;;;13.05;6.07;;;;;;;13.90;100.00;100945.16;5054830;28;20140;-76
2022/05/26 05:53:53;;;;;;;12.90;6.65;;;;;;;14.21;100.00;100991.88;5056103;28;20027;-73
2022/05/26 05:56:18;;;;;;;20.48;7.95;;;;;;;14.18;100.00;100977.03;5054191;28;20937;-76
2022/05/26 05:58:44;;;;;;;14.00;6.47;;;;;;;14.31;100.00;100999.22;5050934;28;20086;-73
2022/05/26 06:01:09;;;;;;;12.70;6.05;;;;;;;14.36;100.00;101006.94;5052073;28;20032;-75
2022/05/26 06:03:36;;;;;;;8.88;5.90;;;;;;;14.40;100.00;101010.25;5053932;28;20020;-76
2022/05/26 06:06:03;;;;;;;10.38;6.55;;;;;;;14.36;100.00;101000.78;5034589;28;20147;-77
2022/05/26 06:08:29;;;;;;;11.55;6.05;;;;;;;14.32;100.00;101011.50;5051346;28;20027;-76
2022/05/26 06:10:54;;;;;;;13.52;6.47;;;;;;;14.28;100.00;101011.75;5051286;28;20051;-74
2022/05/26 06:13:20;;;;;;;11.07;6.97;;;;;;;14.27;100.00;101008.25;5052167;28;20127;-74
2022/05/26 06:15:46;;;;;;;12.60;6.38;;;;;;;14.34;100.00;101024.66;5051243;28;20032;-75
2022/05/26 06:18:16;;;;;;;16.20;6.70;;;;;;;14.45;100.00;101026.69;5051663;28;20039;-75
2022/05/26 06:20:42;;;;;;;11.90;6.95;;;;;;;14.36;100.00;101016.66;5052952;28;20028;-74
2022/05/26 06:23:07;;;;;;;15.50;5.85;;;;;;;14.44;100.00;101024.97;5053487;28;20032;-72
2022/05/26 06:25:33;;;;;;;14.35;6.07;;;;;;;14.57;100.00;101031.28;5047780;28;20819;-75
2022/05/26 06:30:42;;;;;;;12.88;5.90;;;;;;;14.59;100.00;101050.59;5061142;28;20047;-74
2022/05/26 06:38:39;;;;;;;17.20;6.82;;;;;;;14.68;100.00;101050.06;5043978;28;20311;-76
2022/05/26 06:43:52;;;;;;;16.85;6.28;;;;;;;14.69;100.00;101051.78;5050791;28;20051;-72
2022/05/26 06:46:18;;;;;;;17.75;6.53;;;;;;;14.58;100.00;101040.94;5051296;28;20036;-73
2022/05/26 06:48:44;;;;;;;13.95;6.88;;;;;;;14.56;100.00;101034.91;5051542;28;20024;-72
2022/05/26 06:51:10;;;;;;;9.93;6.18;;;;;;;14.63;100.00;101049.47;5050316;28;20043;-72
2022/05/26 06:53:35;;;;;;;11.68;5.50;;;;;;;14.71;100.00;101063.09;5051976;28;20032;-75
2022/05/26 06:56:00;;;;;;;12.57;5.47;;;;;;;14.69;100.00;101067.66;5050384;28;20058;-74
2022/05/26 06:58:27;;;;;;;13.27;6.13;;;;;;;14.71;100.00;101081.63;5051842;28;20666;-71
2022/05/26 07:00:52;;;;;;;13.85;5.72;;;;;;;14.61;100.00;101059.28;5050746;28;20028;-73
2022/05/26 07:03:18;;;;;;;12.45;6.43;;;;;;;14.69;100.00;101063.22;5051342;28;20039;-74
2022/05/26 07:05:43;;;;;;;15.75;6.55;;;;;;;14.73;100.00;101069.19;5050741;28;20035;-74
2022/05/26 07:08:09;;;;;;;12.98;5.70;;;;;;;14.84;100.00;101077.34;5050140;28;20892;-74
2022/05/26 07:10:34;;;;;;;15.75;6.13;;;;;;;14.91;100.00;101068.13;5049553;28;20112;-74
2022/05/26 07:13:01;;;;;;;12.30;6.10;;;;;;;15.04;100.00;101077.06;5050038;28;20035;-73
2022/05/26 07:15:26;;;;;;;12.35;6.38;;;;;;;14.87;100.00;101032.19;5049590;28;20946;-73
2022/05/26 07:17:52;;;;;;;14.27;6.90;;;;;;;15.26;100.00;101081.97;5051520;28;20047;-75
2022/05/26 07:20:18;;;;;;;15.80;6.40;;;;;;;15.18;100.00;101066.53;5032870;28;20914;-72
2022/05/26 07:22:44;;;;;;;12.48;5.88;;;;;;;15.12;100.00;101044.84;5052481;28;20876;-73
2022/05/26 07:25:10;;;;;;;12.48;6.38;;;;;;;15.31;100.00;101072.81;5050287;28;20032;-76
2022/05/26 07:27:35;;;;;;;17.08;5.93;;;;;;;15.43;100.00;101073.03;5043005;28;20040;-74
2022/05/26 07:30:01;;;;;;;14.27;5.93;;;;;;;15.54;100.00;101083.88;5031514;28;20058;-73
2022/05/26 07:32:29;;;;;;;11.73;6.07;;;;;;;15.60;100.00;101099.41;5033226;28;20952;-72
2022/05/26 07:34:55;;;;;;;11.95;6.65;;;;;;;15.41;100.00;101077.56;5045877;28;20031;-73
2022/05/26 07:42:48;;;;;;;14.95;5.57;;;;;;;15.25;100.00;101090.84;5043799;28;20043;-71
2022/05/26 07:45:15;;;;;;;11.73;5.47;;;;;;;15.36;100.00;101106.97;5029998;28;20024;-72
2022/05/26 07:47:40;;;;;;;12.57;5.97;;;;;;;15.34;100.00;101099.09;5046111;28;20036;-72
2022/05/26 07:50:09;;;;;;;15.63;6.57;;;;;;;15.31;100.00;101099.28;5031115;28;20801;-73
2022/05/26 07:52:35;;;;;;;12.73;6.93;;;;;;;15.30;100.00;101100.25;5029378;28;20028;-71
2022/05/26 07:55:00;;;;;;;18.77;6.28;;;;;;;15.27;100.00;101108.38;5030350;28;20088;-71
2022/05/26 07:57:28;;;;;;;13.63;6.93;;;;;;;15.32;100.00;101116.03;5029812;28;20415;-71
2022/05/26 07:59:56;;;;;;;9.77;5.60;;;;;;;15.23;100.00;101112.13;5031043;28;20130;-73
2022/05/26 08:02:21;;;;;;;13.32;5.32;;;;;;;15.27;100.00;101123.41;5046193;28;20040;-72
2022/05/26 08:04:47;;;;;;;13.75;6.72;;;;;;;15.26;100.00;101124.34;5030719;28;20032;-74
2022/05/26 08:07:13;;;;;;;16.70;6.10;;;;;;;15.35;100.00;101127.28;5031061;28;20028;-71
2022/05/26 08:09:40;;;;;;;17.60;6.75;;;;;;;15.25;100.00;101107.59;5028759;28;20880;-72
2022/05/26 08:12:07;;;;;;;15.55;6.38;;;;;;;15.28;100.00;101110.06;5030002;28;20032;-71
2022/05/26 08:14:33;;;;;;;14.70;6.65;;;;;;;15.16;100.00;101118.72;5032086;28;20083;-72
2022/05/26 08:16:58;;;;;;;16.67;7.40;;;;;;;15.07;100.00;101118.41;5045104;28;20865;-72
2022/05/26 08:19:24;;;;;;;8.93;5.65;;;;;;;15.00;100.00;101099.38;5029415;28;20025;-73
2022/05/26 08:21:49;;;;;;;17.08;7.18;;;;;;;15.35;100.00;101126.44;5045050;28;20032;-71
2022/05/26 08:24:17;;;;;;;17.17;7.28;;;;;;;15.62;100.00;101131.94;5046826;28;20175;-72
2022/05/26 08:26:42;;;;;;;9.63;5.70;;;;;;;16.00;100.00;101127.84;5031665;28;20032;-71
2022/05/26 08:29:08;;;;;;;10.48;5.55;;;;;;;16.11;100.00;101117.44;5047717;28;20072;-74
2022/05/26 08:31:33;;;;;;;13.70;6.25;;;;;;;16.16;100.00;101110.06;5048901;28;20036;-73
2022/05/26 08:33:59;;;;;;;13.80;6.50;;;;;;;16.31;100.00;101140.94;5030376;28;20794;-73
2022/05/26 08:36:28;;;;;;;13.73;5.80;;;;;;;16.19;100.00;101135.53;5046379;28;20816;-71
2022/05/26 08:38:55;;;;;;;16.83;5.88;;;;;;;16.07;100.00;101134.50;5045736;28;20910;-71
2022/05/26 08:41:23;;;;;;;14.40;5.80;;;;;;;15.95;100.00;101147.66;5028698;28;20520;-73
2022/05/26 08:43:59;;;;;;;11.75;5.47;;;;;;;15.75;100.00;101136.41;5028864;28;20032;-72
2022/05/26 08:46:28;;;;;;;10.00;5.85;;;;;;;15.58;100.00;101125.97;5030568;28;20032;-73
2022/05/26 08:49:31;;;;;;;11.35;6.15;;;;;;;15.84;100.00;101143.00;5045599;28;20973;-72
2022/05/26 08:52:05;;;;;;;12.68;6.07;;;;;;;16.05;100.00;101147.00;5028270;28;20031;-71
2022/05/26 08:54:35;;;;;;;12.80;5.15;;;;;;;16.05;100.00;101128.44;5055138;28;20140;-73
2022/05/26 08:57:03;;;;;;;10.15;5.80;;;;;;;16.13;100.00;101136.75;5041225;28;20028;-71
2022/05/26 08:59:37;;;;;;;11.77;5.60;;;;;;;16.24;100.00;101147.56;5028128;28;20036;-72
2022/05/26 09:02:03;;;;;;;9.32;5.07;;;;;;;16.39;100.00;101158.19;5027983;28;20026;-73
2022/05/26 09:04:29;;;;;;;12.73;5.43;;;;;;;16.48;100.00;101162.91;5028505;28;20352;-73
2022/05/26 09:15:14;;;;;;;8.43;4.85;;;;;;;17.34;100.00;101166.16;5037454;28;20130;-72
2022/05/26 09:17:40;;;;;;;13.00;4.85;;;;;;;17.40;100.00;101162.25;5041625;28;20938;-77
2022/05/26 09:20:25;;;;;;;8.48;4.80;;;;;;;17.48;100.00;101169.69;5025991;28;20791;-72
2022/05/26 09:22:51;;;;;;;6.75;3.90;;;;;;;17.28;100.00;101166.56;5049014;28;20028;-75
2022/05/26 09:25:46;;;;;;;11.25;4.80;;;;;;;17.34;100.00;101179.44;5048640;28;20071;-73
2022/05/26 09:28:13;;;;;;;16.30;4.93;;;;;;;17.31;100.00;101187.59;5040176;28;20060;-72
2022/05/26 09:30:39;;;;;;;8.90;4.60;;;;;;;17.35;100.00;101177.63;5013634;28;20036;-75
2022/05/26 09:33:19;;;;;;;10.50;4.57;;;;;;;17.40;100.00;101174.69;5032381;28;20735;-71
2022/05/26 09:35:45;;;;;;;8.45;4.03;;;;;;;17.44;100.00;101166.38;5037165;28;20028;-76
2022/05/26 09:38:17;;;;;;;7.55;4.55;;;;;;;17.70;100.00;101170.00;5033513;28;20028;-77
2022/05/26 09:40:46;;;;;;;8.30;4.00;;;;;;;17.71;100.00;101153.13;5035243;28;20939;-73
2022/05/26 09:43:17;;;;;;;10.38;4.28;;;;;;;17.96;100.00;101184.19;5061852;28;20030;-74
2022/05/26 09:45:55;;;;;;;7.57;3.25;;;;;;;18.04;100.00;101187.19;5036697;28;20167;-77
2022/05/26 09:48:27;;;;;;;7.75;4.18;;;;;;;18.10;100.00;101166.34;5046838;28;20097;-77
2022/05/26 09:51:04;;;;;;;9.05;3.92;;;;;;;18.24;100.00;101168.03;5051775;28;20030;-71
2022/05/26 09:53:42;;;;;;;12.80;4.03;;;;;;;18.47;100.00;101193.91;5052994;28;20040;-74
2022/05/26 09:56:26;;;;;;;10.05;3.58;;;;;;;18.41;100.00;101194.31;5053756;28;20891;-74
2022/05/26 09:58:51;;;;;;;8.93;3.90;;;;;;;18.41;100.00;101194.31;5059053;28;20036;-73
2022/05/26 10:01:23;;;;;;;6.85;3.58;;;;;;;18.58;100.00;101198.50;5053630;28;20024;-75
2022/05/26 10:04:26;;;;;;;8.30;4.10;;;;;;;18.51;100.00;101194.56;5054676;28;20139;-70
2022/05/26 10:07:06;;;;;;;6.63;3.80;;;;;;;18.52;100.00;101204.25;5054867;28;20047;-72
2022/05/26 10:10:22;;;;;;;8.88;3.45;;;;;;;18.50;100.00;101200.81;5053554;28;20909;-72
2022/05/26 10:12:52;;;;;;;8.82;4.72;;;;;;;18.44;100.00;101201.25;5042457;28;20051;-75
2022/05/26 10:15:37;;;;;;;8.05;3.78;;;;;;;18.17;100.00;101180.91;5051951;28;20100;-75
2022/05/26 10:18:14;;;;;;;9.45;3.20;;;;;;;18.36;100.00;101201.75;5056168;28;20032;-73
2022/05/26 10:20:45;;;;;;;6.68;3.40;;;;;;;18.34;100.00;101209.88;5052613;28;20233;-73
2022/05/26 10:23:26;;;;;;;5.43;2.88;;;;;;;18.18;100.00;101206.53;5053950;28;20130;-74
2022/05/26 10:26:15;;;;;;;5.20;2.75;;;;;;;18.07;100.00;101209.13;5051484;28;20035;-73
2022/05/26 10:29:05;;;;;;;7.10;3.75;;;;;;;18.04;100.00;101198.69;5054139;28;20931;-74
2022/05/26 10:31:45;;;;;;;7.53;3.30;;;;;;;17.95;100.00;101207.25;5070993;28;20051;-72
2022/05/26 10:34:28;;;;;;;6.82;4.07;;;;;;;17.91;100.00;101215.56;5052936;28;20054;-78
2022/05/26 10:37:12;;;;;;;7.93;3.58;;;;;;;18.13;100.00;101208.69;5052306;28;20899;-74
2022/05/26 10:39:53;;;;;;;6.70;3.33;;;;;;;18.62;100.00;101200.00;5053793;28;20931;-74
2022/05/26 10:42:23;;;;;;;9.60;3.60;;;;;;;19.09;100.00;101204.56;5053127;28;20894;-73
2022/05/26 10:45:00;;;;;;;11.93;3.75;;;;;;;18.99;100.00;101198.22;5050543;28;20028;-75
2022/05/26 10:47:32;;;;;;;13.30;4.22;;;;;;;18.69;100.00;101209.25;5052017;28;20151;-72
2022/05/26 10:50:07;;;;;;;9.80;4.05;;;;;;;18.53;100.00;101212.13;5053308;28;20851;-76
2022/05/26 10:52:37;;;;;;;10.73;4.50;;;;;;;18.36;100.00;101226.56;5051136;28;20641;-75
2022/05/26 10:55:08;;;;;;;7.38;3.72;;;;;;;18.20;100.00;101211.78;5051916;28;20020;-73
2022/05/26 10:57:38;;;;;;;9.32;3.90;;;;;;;18.34;100.00;101223.19;5050082;28;20032;-74
2022/05/26 11:00:09;;;;;;;7.20;3.72;;;;;;;18.56;100.00;101216.38;5046978;28;20024;-73
2022/05/26 11:02:40;;;;;;;8.50;3.50;;;;;;;18.70;100.00;101184.31;5050546;28;20037;-71
2022/05/26 11:05:14;;;;;;;12.50;4.00;;;;;;;18.95;100.00;101194.91;5050539;28;20027;-74
2022/05/26 11:07:53;;;;;;;15.70;5.83;;;;;;;19.09;100.00;101220.56;5051665;28;20105;-72
2022/05/26 11:10:55;;;;;;;11.18;5.68;;;;;;;19.12;100.00;101210.53;5050349;28;20134;-75
2022/05/26 11:13:27;;;;;;;7.75;3.85;;;;;;;19.23;100.00;101207.91;5030027;28;20835;-74
2022/05/26 11:19:20;;;;;;;7.70;3.27;;;;;;;19.80;100.00;101201.94;5051664;28;20039;-73
2022/05/26 11:21:45;;;;;;;8.32;3.60;;;;;;;19.75;100.00;101214.75;5051618;28;20031;-73
2022/05/26 11:24:11;;;;;;;9.27;3.05;;;;;;;19.55;100.00;101220.72;5048441;28;20029;-71
2022/05/26 11:26:51;;;;;;;6.45;3.40;;;;;;;19.67;100.00;101206.50;5030921;28;20031;-74
2022/05/26 11:29:20;;;;;;;6.53;3.10;;;;;;;19.99;100.00;101222.72;5034802;28;20109;-72
2022/05/26 11:38:27;;;;;;;6.93;2.97;;;;;;;20.71;100.00;101205.50;5046925;28;20208;-67
2022/05/26 11:40:56;;;;;;;9.30;3.22;;;;;;;21.24;91.18;101212.75;5049810;28;20032;-68
2022/05/26 11:43:30;;;;;;;7.53;3.17;;;;;;;21.25;89.56;101211.78;5051286;28;20024;-69
2022/05/26 11:45:57;;;;;;;;;;;;;;;21.30;85.44;101216.72;5056103;28;20116;-69
2022/05/26 11:48:32;;;;;;;5.90;2.85;;;;;;;21.30;82.20;101214.06;5051718;28;19970;-68
2022/05/26 11:51:26;;;;;;;5.72;2.75;;;;;;;20.89;84.99;101209.34;5052454;28;20040;-69
2022/05/26 11:53:51;;;;;;;5.35;2.58;;;;;;;20.48;86.21;101209.13;5048011;28;20040;-69
2022/05/26 11:56:30;;;;;;;8.88;2.90;;;;;;;21.06;89.72;101216.00;5050755;28;20085;-79
2022/05/26 11:59:21;;;;;;;9.75;3.35;;;;;;;21.94;86.18;101204.22;5052263;28;20087;-72
2022/05/26 12:01:49;;;;;;;6.32;2.83;;;;;;;21.99;83.50;101207.38;5052161;28;20422;-70
2022/05/26 12:04:36;;;;;;;7.28;2.92;;;;;;;21.31;82.88;101205.91;5049122;28;20146;-71
2022/05/26 12:07:22;;;;;;;16.55;3.38;;;;;;;20.62;84.89;101211.53;5048622;28;20139;-73
2022/05/26 12:09:50;;;;;;;6.10;2.83;;;;;;;20.66;86.30;101197.84;5046316;28;20529;-72
2022/05/26 12:12:21;;;;;;;9.43;3.10;;;;;;;22.11;84.35;101194.75;5050148;28;20032;-70